Time;durP1;ratioP1;P1;durP2;ratioP2;P2;SDS_P1;SDS_P2;PMS_P1;PMS_P2;Temp;Humidity;BMP_temperature;BMP_pressure;BME280_temperature;BME280_humidity;BME280_pressure;Samples;Min_cycle;Max_cycle;Signal;HPM_P1;HPM_P2
2022/08/26 00:00:25;;;;;;;;;;;21.10;99.90;;;;;;5092044;28;19927;-68
2022/08/26 00:02:50;;;;;;;;;;;21.00;99.90;;;;;;5091969;28;19931;-68
2022/08/26 00:05:17;;;;;;;;;;;21.10;99.90;;;;;;5093356;28;20396;-68
2022/08/26 00:07:43;;;;;;;;;;;21.00;99.90;;;;;;5091944;28;20007;-68
2022/08/26 00:10:08;;;;;;;;;;;21.00;99.90;;;;;;5091944;28;20035;-68
2022/08/26 00:12:34;;;;;;;;;;;21.00;99.90;;;;;;5091976;28;20334;-68
2022/08/26 00:14:59;;;;;;;;;;;21.00;99.90;;;;;;5074917;28;19924;-68
2022/08/26 00:17:26;;;;;;;;;;;21.00;99.90;;;;;;5091565;28;20286;-68
2022/08/26 00:19:51;;;;;;;;;;;21.00;99.90;;;;;;5093146;28;19927;-68
2022/08/26 00:22:17;;;;;;;;;;;21.00;99.90;;;;;;5091636;28;19990;-67
2022/08/26 00:24:42;;;;;;;;;;;21.00;99.90;;;;;;5091641;28;19924;-67
2022/08/26 00:27:08;;;;;;;;;;;21.00;99.90;;;;;;5092785;28;20324;-68
2022/08/26 00:29:33;;;;;;;;;;;21.00;99.90;;;;;;5091675;28;19928;-68
2022/08/26 00:32:00;;;;;;;;;;;20.90;99.90;;;;;;5092723;28;19921;-68
2022/08/26 00:34:25;;;;;;;;;;;20.80;99.90;;;;;;5093057;28;19920;-68
2022/08/26 00:36:51;;;;;;;;;;;20.80;99.90;;;;;;5091674;28;20349;-68
2022/08/26 00:39:16;;;;;;;;;;;20.80;99.90;;;;;;5091173;28;19936;-68
2022/08/26 00:41:42;;;;;;;;;;;20.80;99.90;;;;;;5091202;28;20381;-68
2022/08/26 00:44:09;;;;;;;;;;;20.80;99.90;;;;;;5092609;28;19930;-68
2022/08/26 00:46:38;;;;;;;;;;;20.80;99.90;;;;;;5092712;28;19948;-68
2022/08/26 00:49:06;;;;;;;;;;;20.90;99.90;;;;;;5091196;28;19943;-68
2022/08/26 00:51:36;;;;;;;;;;;20.90;99.90;;;;;;5092491;28;19927;-68
2022/08/26 00:54:04;;;;;;;;;;;20.90;99.90;;;;;;5092382;28;19973;-68
2022/08/26 00:56:35;;;;;;;;;;;20.90;99.90;;;;;;5092399;28;19955;-68
2022/08/26 00:59:02;;;;;;;;;;;20.90;99.90;;;;;;5091055;28;19927;-68
2022/08/26 01:01:27;;;;;;;;;;;20.90;99.90;;;;;;5091274;28;20035;-68
2022/08/26 01:03:54;;;;;;;;;;;20.80;99.90;;;;;;5092154;28;20026;-68
2022/08/26 01:06:20;;;;;;;;;;;20.80;99.90;;;;;;5092255;28;19924;-68
2022/08/26 01:08:46;;;;;;;;;;;20.70;99.90;;;;;;5090833;28;20628;-68
2022/08/26 01:11:11;;;;;;;;;;;20.70;99.90;;;;;;5090834;28;19982;-68
2022/08/26 01:13:37;;;;;;;;;;;20.70;99.90;;;;;;5092352;28;19928;-67
2022/08/26 01:16:04;;;;;;;;;;;20.70;99.90;;;;;;5090867;28;19963;-68
2022/08/26 01:18:30;;;;;;;;;;;20.80;99.90;;;;;;5091929;28;19924;-68
2022/08/26 01:21:04;;;;;;;;;;;20.80;99.90;;;;;;5092141;28;20316;-68
2022/08/26 01:23:35;;;;;;;;;;;20.80;99.90;;;;;;5090688;28;19942;-68
2022/08/26 01:26:07;;;;;;;;;;;20.70;99.90;;;;;;5090925;28;19924;-68
2022/08/26 01:28:33;;;;;;;;;;;20.70;99.90;;;;;;5091919;28;19947;-68
2022/08/26 01:31:00;;;;;;;;;;;20.70;99.90;;;;;;5092078;28;20002;-68
2022/08/26 01:33:28;;;;;;;;;;;20.70;99.90;;;;;;5073583;28;19930;-68
2022/08/26 01:35:54;;;;;;;;;;;20.70;99.90;;;;;;5091911;28;19977;-68
2022/08/26 01:38:19;;;;;;;;;;;20.70;99.90;;;;;;5090564;28;19924;-68
2022/08/26 01:40:45;;;;;;;;;;;20.70;99.90;;;;;;5090837;28;19924;-68
2022/08/26 01:43:15;;;;;;;;;;;20.80;99.90;;;;;;5093352;28;19959;-68
2022/08/26 01:45:41;;;;;;;;;;;20.80;99.90;;;;;;5096015;28;19958;-68
2022/08/26 01:48:10;;;;;;;;;;;20.80;99.90;;;;;;5095852;28;19924;-68
2022/08/26 01:50:37;;;;;;;;;;;20.80;99.90;;;;;;5095885;28;19924;-68
2022/08/26 01:53:05;;;;;;;;;;;20.80;99.90;;;;;;5094729;28;19920;-68
2022/08/26 01:55:32;;;;;;;;;;;20.80;99.90;;;;;;5094883;28;19942;-68
2022/08/26 01:57:58;;;;;;;;;;;20.80;99.90;;;;;;5094450;28;19932;-68
2022/08/26 02:00:24;;;;;;;;;;;20.80;99.90;;;;;;5094705;28;19920;-68
2022/08/26 02:03:15;;;;;;;;;;;20.80;99.90;;;;;;5094281;28;20400;-68
2022/08/26 02:05:39;;;;;;;;;;;20.90;99.90;;;;;;5095517;28;19964;-68
2022/08/26 02:08:04;;;;;;;;;;;20.90;99.90;;;;;;5094158;28;20388;-68
2022/08/26 02:10:30;;;;;;;;;;;20.90;99.90;;;;;;5095840;28;19945;-68
2022/08/26 02:12:56;;;;;;;;;;;20.80;99.90;;;;;;5095217;28;19947;-68
2022/08/26 02:15:21;;;;;;;;;;;20.80;99.90;;;;;;5094101;28;19927;-68
2022/08/26 02:17:47;;;;;;;;;;;20.90;99.90;;;;;;5094079;28;20015;-68
2022/08/26 02:20:15;;;;;;;;;;;20.90;99.90;;;;;;5095493;28;19931;-68
2022/08/26 02:22:41;;;;;;;;;;;21.00;99.90;;;;;;5095378;28;20364;-68
2022/08/26 02:25:27;;;;;;;;;;;20.80;99.90;;;;;;5095286;28;19930;-68
2022/08/26 02:27:55;;;;;;;;;;;20.80;99.90;;;;;;5093616;28;20394;-68
2022/08/26 02:30:23;;;;;;;;;;;20.80;99.90;;;;;;5093689;28;19924;-68
2022/08/26 02:32:48;;;;;;;;;;;20.80;99.90;;;;;;5095244;28;20385;-68
2022/08/26 02:35:14;;;;;;;;;;;20.90;99.90;;;;;;5093793;28;19973;-68
2022/08/26 02:37:40;;;;;;;;;;;20.80;99.90;;;;;;5095608;28;19959;-68
2022/08/26 02:40:07;;;;;;;;;;;20.80;99.90;;;;;;5115462;28;20376;-68
2022/08/26 02:42:32;;;;;;;;;;;20.80;99.90;;;;;;5097090;28;19923;-68
2022/08/26 02:44:58;;;;;;;;;;;20.90;99.90;;;;;;5095977;28;20451;-68
2022/08/26 02:47:24;;;;;;;;;;;20.90;99.90;;;;;;5079206;28;19974;-68
2022/08/26 02:49:50;;;;;;;;;;;21.00;99.90;;;;;;5095845;28;20455;-68
2022/08/26 02:52:16;;;;;;;;;;;21.00;99.90;;;;;;5096498;28;20303;-68
2022/08/26 02:54:41;;;;;;;;;;;20.90;99.90;;;;;;5096343;28;19920;-68
2022/08/26 02:57:08;;;;;;;;;;;20.90;99.90;;;;;;5114300;28;19935;-68
2022/08/26 02:59:34;;;;;;;;;;;20.90;99.90;;;;;;5114102;28;19924;-68
2022/08/26 03:02:00;;;;;;;;;;;20.90;99.90;;;;;;5114079;28;19926;-68
2022/08/26 03:04:26;;;;;;;;;;;20.90;99.90;;;;;;5095742;28;20006;-68
2022/08/26 03:06:52;;;;;;;;;;;20.90;99.90;;;;;;5095915;28;19924;-68
2022/08/26 03:09:17;;;;;;;;;;;20.90;99.90;;;;;;5114016;28;20401;-68
2022/08/26 03:11:43;;;;;;;;;;;20.90;99.90;;;;;;5095840;28;19927;-68
2022/08/26 03:14:08;;;;;;;;;;;20.90;99.90;;;;;;5096525;28;20276;-68
2022/08/26 03:16:35;;;;;;;;;;;21.00;99.90;;;;;;5096506;28;19927;-68
2022/08/26 03:19:01;;;;;;;;;;;21.00;99.90;;;;;;5079773;28;19924;-68
2022/08/26 03:21:27;;;;;;;;;;;20.90;99.90;;;;;;5096550;28;20261;-68
2022/08/26 03:23:53;;;;;;;;;;;20.90;99.90;;;;;;5096319;28;20068;-68
2022/08/26 03:26:18;;;;;;;;;;;20.90;99.90;;;;;;5096125;28;20606;-68
2022/08/26 03:31:28;;;;;;;;;;;20.90;99.90;;;;;;5114604;28;19924;-68
2022/08/26 03:33:54;;;;;;;;;;;21.00;99.90;;;;;;5096430;28;19989;-68
2022/08/26 03:36:20;;;;;;;;;;;20.80;99.90;;;;;;5114293;28;19926;-68
2022/08/26 03:38:45;;;;;;;;;;;20.90;99.90;;;;;;5114140;28;19928;-68
2022/08/26 03:41:11;;;;;;;;;;;20.80;99.90;;;;;;5096067;28;19928;-67
2022/08/26 03:43:37;;;;;;;;;;;20.80;99.90;;;;;;5095972;28;20572;-68
2022/08/26 03:46:06;;;;;;;;;;;20.90;99.90;;;;;;5095752;28;19923;-67
2022/08/26 03:48:32;;;;;;;;;;;20.80;99.90;;;;;;5095701;28;19931;-68
2022/08/26 03:50:58;;;;;;;;;;;20.80;99.90;;;;;;5095575;28;19927;-68
2022/08/26 03:53:24;;;;;;;;;;;20.90;99.90;;;;;;5095641;28;19920;-68
2022/08/26 03:55:49;;;;;;;;;;;20.80;99.90;;;;;;5095545;28;19926;-68
2022/08/26 03:58:15;;;;;;;;;;;20.80;99.90;;;;;;5113971;28;20466;-68
2022/08/26 04:00:40;;;;;;;;;;;20.80;99.90;;;;;;5095488;28;19993;-68
2022/08/26 04:03:06;;;;;;;;;;;20.70;99.90;;;;;;5095701;28;19990;-68
2022/08/26 04:05:31;;;;;;;;;;;20.80;99.90;;;;;;5094567;28;19930;-68
2022/08/26 04:07:57;;;;;;;;;;;20.80;99.90;;;;;;5095209;28;19991;-68
2022/08/26 04:10:23;;;;;;;;;;;20.70;99.90;;;;;;5113367;28;20582;-68
2022/08/26 04:12:49;;;;;;;;;;;20.70;99.90;;;;;;5095216;28;19926;-68
2022/08/26 04:15:16;;;;;;;;;;;20.70;99.90;;;;;;5095088;28;19977;-68
2022/08/26 04:17:42;;;;;;;;;;;20.80;99.90;;;;;;5078384;28;19919;-68
2022/08/26 04:20:08;;;;;;;;;;;20.80;99.90;;;;;;5095080;28;20335;-68
2022/08/26 04:22:33;;;;;;;;;;;20.80;99.90;;;;;;5094827;28;19931;-68
2022/08/26 04:24:58;;;;;;;;;;;20.80;99.90;;;;;;5094519;28;19962;-68
2022/08/26 04:27:24;;;;;;;;;;;20.80;99.90;;;;;;5112569;28;20007;-68
2022/08/26 04:29:50;;;;;;;;;;;20.80;99.90;;;;;;5094045;28;19976;-68
2022/08/26 04:32:15;;;;;;;;;;;20.80;99.90;;;;;;5112298;28;19972;-68
2022/08/26 04:34:41;;;;;;;;;;;20.80;99.90;;;;;;5094200;28;19950;-68
2022/08/26 04:37:08;;;;;;;;;;;20.80;99.90;;;;;;5094333;28;19996;-68
2022/08/26 04:39:34;;;;;;;;;;;20.80;99.90;;;;;;5093925;28;19969;-68
2022/08/26 04:41:59;;;;;;;;;;;20.90;99.90;;;;;;5111932;28;19928;-68
2022/08/26 04:44:26;;;;;;;;;;;20.80;99.90;;;;;;5093540;28;19931;-68
2022/08/26 04:46:52;;;;;;;;;;;20.90;99.90;;;;;;5093746;28;19923;-68
2022/08/26 04:49:19;;;;;;;;;;;20.90;99.90;;;;;;5093585;28;20367;-68
2022/08/26 04:51:44;;;;;;;;;;;20.90;99.90;;;;;;5093089;28;20361;-68
2022/08/26 04:54:10;;;;;;;;;;;20.90;99.90;;;;;;5093376;28;19927;-68
2022/08/26 04:56:37;;;;;;;;;;;20.80;99.90;;;;;;5076296;28;19973;-68
2022/08/26 04:59:04;;;;;;;;;;;20.80;99.90;;;;;;5093434;28;19920;-68
2022/08/26 05:01:30;;;;;;;;;;;20.90;99.90;;;;;;5093306;28;19919;-68
2022/08/26 05:03:57;;;;;;;;;;;20.80;99.90;;;;;;5093195;28;19976;-68
2022/08/26 05:06:22;;;;;;;;;;;20.90;99.90;;;;;;5093113;28;19959;-68
2022/08/26 05:08:47;;;;;;;;;;;20.80;99.90;;;;;;5093218;28;19974;-68
2022/08/26 05:11:13;;;;;;;;;;;20.80;99.90;;;;;;5093149;28;19923;-68
2022/08/26 05:13:39;;;;;;;;;;;20.80;99.90;;;;;;5093016;28;19919;-68
2022/08/26 05:16:06;;;;;;;;;;;20.80;99.90;;;;;;5111654;28;19920;-68
2022/08/26 05:18:32;;;;;;;;;;;20.90;99.90;;;;;;5092152;28;19959;-68
2022/08/26 05:20:59;;;;;;;;;;;20.80;99.90;;;;;;5093484;28;19947;-68
2022/08/26 05:23:24;;;;;;;;;;;20.90;99.90;;;;;;5076494;28;19930;-68
2022/08/26 05:25:51;;;;;;;;;;;20.90;99.90;;;;;;5093478;28;19920;-68
2022/08/26 05:28:17;;;;;;;;;;;20.90;99.90;;;;;;5111844;28;19920;-68
2022/08/26 05:30:43;;;;;;;;;;;20.90;99.90;;;;;;5093902;28;19924;-68
2022/08/26 05:33:08;;;;;;;;;;;21.00;99.90;;;;;;5094085;28;20261;-68
2022/08/26 05:35:36;;;;;;;;;;;20.90;99.90;;;;;;5112280;28;19927;-68
2022/08/26 05:38:06;;;;;;;;;;;20.90;99.90;;;;;;5111857;28;19919;-68
2022/08/26 05:40:33;;;;;;;;;;;20.90;99.90;;;;;;5093843;28;19927;-68
2022/08/26 05:42:59;;;;;;;;;;;20.90;99.90;;;;;;5112194;28;19926;-68
2022/08/26 05:45:24;;;;;;;;;;;20.90;99.90;;;;;;5112244;28;19924;-68
2022/08/26 05:47:50;;;;;;;;;;;21.00;99.90;;;;;;5093661;28;20014;-68
2022/08/26 05:50:20;;;;;;;;;;;21.00;99.90;;;;;;5093649;28;19928;-68
2022/08/26 05:52:49;;;;;;;;;;;21.10;99.90;;;;;;5093636;28;19928;-68
2022/08/26 05:55:15;;;;;;;;;;;21.10;99.90;;;;;;5111889;28;19928;-68
2022/08/26 05:57:41;;;;;;;;;;;21.10;99.90;;;;;;5093842;28;19919;-68
2022/08/26 06:00:06;;;;;;;;;;;21.20;99.90;;;;;;5093578;28;19924;-68
2022/08/26 06:02:32;;;;;;;;;;;21.20;99.90;;;;;;5093629;28;19920;-68
2022/08/26 06:04:57;;;;;;;;;;;21.20;99.90;;;;;;5093863;28;19923;-68
2022/08/26 06:08:09;;;;;;;;;;;21.30;99.90;;;;;;5093737;28;19924;-68
2022/08/26 06:10:11;;;;;;;;;;;21.20;99.90;;;;;;5093768;28;19923;-68
2022/08/26 06:12:36;;;;;;;;;;;21.20;99.90;;;;;;5093808;28;19943;-68
2022/08/26 06:15:02;;;;;;;;;;;21.30;99.90;;;;;;5111847;28;20373;-68
2022/08/26 06:17:28;;;;;;;;;;;21.30;99.90;;;;;;5111524;28;20355;-68
2022/08/26 06:19:54;;;;;;;;;;;21.40;99.90;;;;;;5093467;28;19924;-68
2022/08/26 06:27:48;;;;;;;;;;;21.50;99.90;;;;;;5111582;28;19924;-68
2022/08/26 06:30:13;;;;;;;;;;;21.50;99.90;;;;;;5096008;28;19928;-68
2022/08/26 06:32:39;;;;;;;;;;;21.60;99.90;;;;;;5096623;28;19919;-68
2022/08/26 06:35:05;;;;;;;;;;;21.60;99.90;;;;;;5096364;28;19994;-68
2022/08/26 06:37:30;;;;;;;;;;;21.70;99.90;;;;;;5114349;28;19919;-68
2022/08/26 06:39:56;;;;;;;;;;;21.80;99.90;;;;;;5114992;28;20385;-68
2022/08/26 06:42:21;;;;;;;;;;;21.80;99.90;;;;;;5096066;28;19919;-69
2022/08/26 06:44:47;;;;;;;;;;;21.90;99.90;;;;;;5095879;28;19931;-68
2022/08/26 06:47:12;;;;;;;;;;;22.00;99.90;;;;;;5095956;28;20304;-68
2022/08/26 06:49:37;;;;;;;;;;;22.10;99.90;;;;;;5096399;28;19928;-68
2022/08/26 06:52:03;;;;;;;;;;;22.20;99.90;;;;;;5114464;28;19920;-68
2022/08/26 06:54:30;;;;;;;;;;;22.20;99.90;;;;;;5079535;28;19920;-68
2022/08/26 06:56:56;;;;;;;;;;;22.20;99.90;;;;;;5096741;28;19920;-68
2022/08/26 06:59:22;;;;;;;;;;;22.20;99.90;;;;;;5115099;28;19924;-68
2022/08/26 07:01:47;;;;;;;;;;;22.20;99.90;;;;;;5096571;28;20276;-68
2022/08/26 07:04:15;;;;;;;;;;;22.20;99.90;;;;;;5096447;28;19920;-68
2022/08/26 07:06:41;;;;;;;;;;;22.10;99.90;;;;;;5114852;28;20045;-68
2022/08/26 07:09:07;;;;;;;;;;;22.30;99.90;;;;;;5096166;28;19930;-68
2022/08/26 07:11:33;;;;;;;;;;;22.30;99.90;;;;;;5114762;28;19924;-68
2022/08/26 07:13:59;;;;;;;;;;;22.40;99.90;;;;;;5079525;28;20383;-68
2022/08/26 07:16:25;;;;;;;;;;;22.40;99.90;;;;;;5096468;28;20012;-68
2022/08/26 07:18:52;;;;;;;;;;;22.50;99.90;;;;;;5096146;28;19927;-68
2022/08/26 07:21:18;;;;;;;;;;;22.40;99.90;;;;;;5114567;28;19927;-68
2022/08/26 07:23:44;;;;;;;;;;;22.40;99.90;;;;;;5114303;28;19920;-68
2022/08/26 07:26:11;;;;;;;;;;;22.40;99.90;;;;;;5114312;28;20002;-68
2022/08/26 07:28:37;;;;;;;;;;;22.30;99.90;;;;;;5095834;28;19920;-68
2022/08/26 07:31:09;;;;;;;;;;;22.20;99.90;;;;;;5095957;28;20018;-68
2022/08/26 07:33:35;;;;;;;;;;;22.20;99.90;;;;;;5095910;28;19930;-68
2022/08/26 07:36:01;;;;;;;;;;;22.30;99.90;;;;;;5114444;28;20019;-68
2022/08/26 07:38:26;;;;;;;;;;;22.20;99.90;;;;;;5114129;28;20014;-68
2022/08/26 07:40:52;;;;;;;;;;;22.20;99.90;;;;;;5094621;28;20006;-68
2022/08/26 07:43:17;;;;;;;;;;;22.20;99.90;;;;;;5114209;28;19924;-68
2022/08/26 07:45:43;;;;;;;;;;;22.20;99.90;;;;;;5114024;28;19959;-68
2022/08/26 07:48:09;;;;;;;;;;;22.30;99.90;;;;;;5095388;28;19923;-68
2022/08/26 07:50:35;;;;;;;;;;;22.30;99.90;;;;;;5095581;28;19931;-68
2022/08/26 07:53:02;;;;;;;;;;;22.20;99.90;;;;;;5113966;28;19966;-68
2022/08/26 07:55:28;;;;;;;;;;;22.30;99.90;;;;;;5113813;28;19934;-68
2022/08/26 07:57:53;;;;;;;;;;;22.30;99.90;;;;;;5095483;28;20014;-68
2022/08/26 08:00:20;;;;;;;;;;;22.30;99.90;;;;;;5078468;28;19942;-68
2022/08/26 08:02:46;;;;;;;;;;;22.20;99.90;;;;;;5095594;28;19928;-68
2022/08/26 08:05:12;;;;;;;;;;;22.20;99.90;;;;;;5078378;28;19920;-68
2022/08/26 08:07:38;;;;;;;;;;;22.30;99.90;;;;;;5095235;28;19942;-68
2022/08/26 08:10:04;;;;;;;;;;;22.30;99.90;;;;;;5095080;28;20336;-68
2022/08/26 08:12:29;;;;;;;;;;;22.30;99.90;;;;;;5095270;28;19924;-68
2022/08/26 08:14:55;;;;;;;;;;;22.10;99.90;;;;;;5095082;28;19927;-68
2022/08/26 08:17:20;;;;;;;;;;;22.10;99.90;;;;;;5095151;28;19919;-68
2022/08/26 08:19:46;;;;;;;;;;;22.20;99.90;;;;;;5113306;28;19978;-68
2022/08/26 08:22:12;;;;;;;;;;;22.30;99.90;;;;;;5113325;28;19959;-68
2022/08/26 08:24:37;;;;;;;;;;;22.30;99.90;;;;;;5113035;28;20038;-68
2022/08/26 08:27:03;;;;;;;;;;;22.40;99.90;;;;;;5095106;28;19977;-68
2022/08/26 08:29:28;;;;;;;;;;;22.50;99.90;;;;;;5094804;28;19927;-68
2022/08/26 08:31:55;;;;;;;;;;;22.30;99.90;;;;;;5113188;28;20443;-68
2022/08/26 08:34:20;;;;;;;;;;;22.30;99.90;;;;;;5113253;28;19920;-68
2022/08/26 08:36:46;;;;;;;;;;;22.40;99.90;;;;;;5094731;28;20433;-68
2022/08/26 08:39:12;;;;;;;;;;;22.30;99.90;;;;;;5112815;28;19924;-68
2022/08/26 08:41:52;;;;;;;;;;;22.30;99.90;;;;;;5094577;28;20292;-68
2022/08/26 08:44:23;;;;;;;;;;;22.40;99.90;;;;;;5094590;28;19973;-68
2022/08/26 08:46:54;;;;;;;;;;;22.40;99.90;;;;;;5094409;28;19926;-68
2022/08/26 08:49:20;;;;;;;;;;;22.40;99.90;;;;;;5094415;28;19930;-68
2022/08/26 08:51:53;;;;;;;;;;;22.50;99.90;;;;;;5094250;28;19931;-68
2022/08/26 08:54:19;;;;;;;;;;;22.40;99.90;;;;;;5077761;28;20370;-68
2022/08/26 08:56:52;;;;;;;;;;;22.30;99.90;;;;;;5112521;28;20415;-68
2022/08/26 08:59:22;;;;;;;;;;;22.40;99.90;;;;;;5094635;28;20507;-68
2022/08/26 09:02:06;;;;;;;;;;;22.40;99.90;;;;;;5094532;28;19927;-68
2022/08/26 09:04:42;;;;;;;;;;;22.50;99.90;;;;;;5077775;28;19920;-68
2022/08/26 09:07:10;;;;;;;;;;;22.40;99.90;;;;;;5112410;28;19931;-68
2022/08/26 09:09:35;;;;;;;;;;;22.30;99.90;;;;;;5094105;28;19928;-68
2022/08/26 09:12:01;;;;;;;;;;;22.30;99.90;;;;;;5094169;28;19968;-68
2022/08/26 09:14:27;;;;;;;;;;;22.40;99.90;;;;;;5094123;28;19923;-68
2022/08/26 09:17:02;;;;;;;;;;;22.50;99.90;;;;;;5112486;28;19943;-68
2022/08/26 09:19:37;;;;;;;;;;;22.50;99.90;;;;;;5094096;28;19931;-68
2022/08/26 09:22:03;;;;;;;;;;;22.20;99.90;;;;;;5094052;28;19931;-68
2022/08/26 09:24:29;;;;;;;;;;;22.30;99.90;;;;;;5094391;28;20315;-68
2022/08/26 09:26:57;;;;;;;;;;;22.10;99.90;;;;;;5093838;28;19919;-68
2022/08/26 09:29:24;;;;;;;;;;;22.20;99.90;;;;;;5077013;28;19963;-68
2022/08/26 09:31:51;;;;;;;;;;;22.10;99.90;;;;;;5112251;28;19924;-68
2022/08/26 09:34:21;;;;;;;;;;;22.00;99.90;;;;;;5112277;28;20289;-68
2022/08/26 09:36:47;;;;;;;;;;;22.00;99.90;;;;;;5093775;28;19931;-68
2022/08/26 09:39:22;;;;;;;;;;;22.10;99.90;;;;;;5076797;28;20035;-68
2022/08/26 09:42:01;;;;;;;;;;;22.20;99.90;;;;;;5093724;28;19927;-68
2022/08/26 09:44:26;;;;;;;;;;;22.30;99.90;;;;;;5094107;28;19963;-68
2022/08/26 09:46:56;;;;;;;;;;;22.30;99.90;;;;;;5112124;28;19974;-68
2022/08/26 09:49:25;;;;;;;;;;;22.30;99.90;;;;;;5112131;28;19966;-68
2022/08/26 09:52:06;;;;;;;;;;;22.30;99.90;;;;;;5093812;28;19924;-68
2022/08/26 09:54:32;;;;;;;;;;;22.20;99.90;;;;;;5097935;22;19993;-69
2022/08/26 09:57:16;;;;;;;;;;;22.30;99.90;;;;;;5072208;28;20375;-68
2022/08/26 09:59:42;;;;;;;;;;;22.40;99.90;;;;;;5056668;28;19963;-68
2022/08/26 10:02:26;;;;;;;;;;;22.40;99.90;;;;;;5072879;28;20441;-68
2022/08/26 10:04:54;;;;;;;;;;;22.40;99.90;;;;;;5075720;28;19927;-68
2022/08/26 10:07:33;;;;;;;;;;;22.50;99.90;;;;;;5077133;28;19927;-69
2022/08/26 10:10:02;;;;;;;;;;;22.40;99.90;;;;;;5076908;28;19935;-69
2022/08/26 10:12:30;;;;;;;;;;;22.50;99.90;;;;;;5060821;28;20069;-69
2022/08/26 10:14:58;;;;;;;;;;;22.40;99.90;;;;;;5095452;28;19924;-69
2022/08/26 10:17:27;;;;;;;;;;;22.60;99.90;;;;;;5060439;28;20013;-69
2022/08/26 10:19:58;;;;;;;;;;;22.60;99.90;;;;;;5077356;28;19921;-69
2022/08/26 10:22:47;;;;;;;;;;;22.70;99.90;;;;;;5076734;28;19976;-68
2022/08/26 10:25:14;;;;;;;;;;;22.60;99.90;;;;;;5065962;28;20018;-68
2022/08/26 10:27:40;;;;;;;;;;;22.80;99.90;;;;;;5075746;28;19924;-68
2022/08/26 10:30:09;;;;;;;;;;;22.90;99.90;;;;;;5076612;28;19931;-68
2022/08/26 10:32:39;;;;;;;;;;;22.90;99.90;;;;;;5076461;28;19989;-68
2022/08/26 10:35:06;;;;;;;;;;;23.10;99.90;;;;;;5077099;28;19920;-68
2022/08/26 10:37:35;;;;;;;;;;;23.10;99.90;;;;;;5094950;28;19920;-68
2022/08/26 10:40:04;;;;;;;;;;;23.10;99.90;;;;;;5077040;28;20511;-68
2022/08/26 10:42:34;;;;;;;;;;;23.20;99.90;;;;;;5077094;28;19943;-68
2022/08/26 10:45:20;;;;;;;;;;;23.00;99.90;;;;;;5076520;28;20015;-68
2022/08/26 10:47:52;;;;;;;;;;;23.00;99.90;;;;;;5094671;28;19928;-68
2022/08/26 10:50:18;;;;;;;;;;;22.60;99.90;;;;;;5094655;28;20041;-68
2022/08/26 10:52:51;;;;;;;;;;;22.70;99.90;;;;;;5094694;28;20535;-68
2022/08/26 10:55:30;;;;;;;;;;;22.70;99.90;;;;;;5094663;28;19932;-68
2022/08/26 10:58:00;;;;;;;;;;;22.70;99.90;;;;;;5076481;28;19920;-68
2022/08/26 11:03:30;;;;;;;;;;;22.70;99.90;;;;;;5074447;28;19921;-68
2022/08/26 11:06:31;;;;;;;;;;;22.60;99.90;;;;;;5056285;28;20007;-68
2022/08/26 11:08:59;;;;;;;;;;;22.60;99.90;;;;;;5014668;28;19925;-68
2022/08/26 11:11:40;;;;;;;;;;;22.50;99.90;;;;;;5048084;28;20382;-68
2022/08/26 11:14:12;;;;;;;;;;;22.50;99.90;;;;;;5055646;28;20011;-68
2022/08/26 11:16:39;;;;;;;;;;;22.50;99.90;;;;;;5073686;28;20016;-68
2022/08/26 11:19:05;;;;;;;;;;;22.70;99.90;;;;;;5055794;28;19925;-68
2022/08/26 11:21:57;;;;;;;;;;;22.80;99.90;;;;;;5055854;28;20358;-68
2022/08/26 11:24:38;;;;;;;;;;;23.00;99.90;;;;;;5057254;28;19924;-68
2022/08/26 11:27:03;;;;;;;;;;;23.10;99.90;;;;;;5072340;28;19928;-68
2022/08/26 11:29:48;;;;;;;;;;;23.30;99.90;;;;;;5055302;28;19924;-68
2022/08/26 11:32:24;;;;;;;;;;;23.40;99.90;;;;;;5073258;28;19963;-68
2022/08/26 11:34:54;;;;;;;;;;;23.50;99.90;;;;;;5055208;28;19920;-68
2022/08/26 11:37:21;;;;;;;;;;;23.50;99.90;;;;;;5073285;28;19928;-68
2022/08/26 11:39:47;;;;;;;;;;;23.40;99.90;;;;;;5072986;28;20274;-68
2022/08/26 11:42:36;;;;;;;;;;;23.40;99.90;;;;;;5055329;28;19928;-68
2022/08/26 11:45:27;;;;;;;;;;;23.30;99.90;;;;;;5072705;28;20404;-68
2022/08/26 11:47:53;;;;;;;;;;;23.30;99.90;;;;;;5022508;28;20055;-68
2022/08/26 11:50:22;;;;;;;;;;;23.20;99.90;;;;;;5054957;28;20019;-68
2022/08/26 11:53:05;;;;;;;;;;;23.10;99.90;;;;;;5054412;28;19924;-68
2022/08/26 11:55:32;;;;;;;;;;;23.10;99.90;;;;;;5054671;28;19974;-68
2022/08/26 11:58:02;;;;;;;;;;;23.00;99.90;;;;;;5054457;28;19982;-68
2022/08/26 12:00:45;;;;;;;;;;;22.80;99.90;;;;;;5072938;28;20321;-68
2022/08/26 12:03:15;;;;;;;;;;;22.90;99.90;;;;;;5072361;28;19928;-68
2022/08/26 12:05:42;;;;;;;;;;;23.00;99.90;;;;;;5054552;28;20282;-68
2022/08/26 12:08:10;;;;;;;;;;;22.90;99.90;;;;;;5054113;28;19920;-68
2022/08/26 12:10:36;;;;;;;;;;;22.80;99.90;;;;;;5084118;28;19967;-68
2022/08/26 12:13:02;;;;;;;;;;;22.70;99.90;;;;;;5092614;28;19970;-68
2022/08/26 12:15:29;;;;;;;;;;;22.80;99.90;;;;;;5093084;28;19931;-68
2022/08/26 12:17:55;;;;;;;;;;;22.70;99.90;;;;;;5074882;28;19920;-68
2022/08/26 12:20:29;;;;;;;;;;;22.70;99.90;;;;;;5093137;28;19920;-68
2022/08/26 12:22:57;;;;;;;;;;;22.50;99.90;;;;;;5074823;28;19920;-68
2022/08/26 12:25:23;;;;;;;;;;;22.60;99.90;;;;;;5074651;28;19926;-68
2022/08/26 12:27:49;;;;;;;;;;;22.40;99.90;;;;;;5074181;28;19924;-68
2022/08/26 12:30:16;;;;;;;;;;;22.40;99.90;;;;;;5074669;28;19931;-68
2022/08/26 12:32:47;;;;;;;;;;;22.30;99.90;;;;;;5074645;28;19963;-68
2022/08/26 12:35:14;;;;;;;;;;;22.20;99.90;;;;;;5074777;28;19975;-68
2022/08/26 12:37:42;;;;;;;;;;;22.00;99.90;;;;;;5092907;28;19920;-68
2022/08/26 12:40:23;;;;;;;;;;;21.90;99.90;;;;;;5092730;28;20288;-68
2022/08/26 12:42:49;;;;;;;;;;;21.90;99.90;;;;;;5074409;28;19924;-68
2022/08/26 12:45:25;;;;;;;;;;;22.00;99.90;;;;;;5074194;28;19927;-69
2022/08/26 12:47:52;;;;;;;;;;;22.00;99.90;;;;;;5092623;28;19943;-68
2022/08/26 12:50:20;;;;;;;;;;;21.90;99.90;;;;;;5092464;28;19932;-68
2022/08/26 12:53:05;;;;;;;;;;;21.80;99.90;;;;;;5092262;28;20400;-68
2022/08/26 12:55:31;;;;;;;;;;;21.80;99.90;;;;;;5074027;28;19928;-68
2022/08/26 12:58:28;;;;;;;;;;;22.00;99.90;;;;;;5092332;28;19920;-68
2022/08/26 13:01:17;;;;;;;;;;;22.10;99.90;;;;;;5047054;28;19966;-68
2022/08/26 13:03:44;;;;;;;;;;;22.40;99.90;;;;;;5073986;28;19966;-68
2022/08/26 13:06:21;;;;;;;;;;;22.60;99.90;;;;;;5092491;28;19924;-68
2022/08/26 13:08:47;;;;;;;;;;;22.60;99.90;;;;;;5074025;28;20648;-68
2022/08/26 13:11:24;;;;;;;;;;;22.50;99.90;;;;;;5073965;28;19928;-68
2022/08/26 13:13:55;;;;;;;;;;;22.50;99.90;;;;;;5073897;28;19924;-68
2022/08/26 13:16:21;;;;;;;;;;;22.40;99.90;;;;;;5073798;28;19924;-68
2022/08/26 13:18:48;;;;;;;;;;;22.40;99.90;;;;;;5073853;28;19920;-68
2022/08/26 13:21:16;;;;;;;;;;;22.20;99.90;;;;;;5091757;28;19974;-68
2022/08/26 13:23:41;;;;;;;;;;;22.10;99.90;;;;;;5073879;28;20346;-68
2022/08/26 13:26:07;;;;;;;;;;;21.90;99.90;;;;;;5056925;28;20027;-68
2022/08/26 13:28:32;;;;;;;;;;;22.00;99.90;;;;;;5091964;28;19969;-68
2022/08/26 13:30:58;;;;;;;;;;;22.10;99.90;;;;;;5091978;28;19939;-68
2022/08/26 13:33:24;;;;;;;;;;;22.30;99.90;;;;;;5073788;28;19926;-68
2022/08/26 13:35:49;;;;;;;;;;;22.30;99.90;;;;;;5073656;28;19975;-68
2022/08/26 13:38:15;;;;;;;;;;;22.50;99.90;;;;;;5073959;28;19920;-68
2022/08/26 13:40:42;;;;;;;;;;;22.60;99.90;;;;;;5095751;28;19968;-68
2022/08/26 13:43:09;;;;;;;;;;;22.50;99.90;;;;;;5077873;28;19963;-68
2022/08/26 13:45:34;;;;;;;;;;;22.20;99.90;;;;;;5077891;28;20515;-68
2022/08/26 13:48:00;;;;;;;;;;;22.20;99.90;;;;;;5077619;28;19983;-68
2022/08/26 13:50:25;;;;;;;;;;;22.10;99.90;;;;;;5077831;28;19935;-68
2022/08/26 13:52:52;;;;;;;;;;;22.20;99.90;;;;;;5094466;28;20357;-68
2022/08/26 13:55:17;;;;;;;;;;;22.00;99.90;;;;;;5077450;28;19931;-68
2022/08/26 13:57:43;;;;;;;;;;;22.00;99.90;;;;;;5077325;28;19924;-68
2022/08/26 14:00:09;;;;;;;;;;;22.10;99.90;;;;;;5076638;28;19931;-68
2022/08/26 14:02:35;;;;;;;;;;;21.90;99.90;;;;;;5076826;28;19974;-68
2022/08/26 14:05:00;;;;;;;;;;;21.80;99.90;;;;;;5076793;28;19975;-68
2022/08/26 14:07:26;;;;;;;;;;;22.00;99.90;;;;;;5094861;28;19927;-68
2022/08/26 14:09:51;;;;;;;;;;;22.10;99.90;;;;;;5095096;28;19924;-68
2022/08/26 14:12:16;;;;;;;;;;;22.00;99.90;;;;;;5077574;28;19928;-68
2022/08/26 14:14:42;;;;;;;;;;;22.00;99.90;;;;;;5094699;28;20451;-68
2022/08/26 14:17:08;;;;;;;;;;;22.00;99.90;;;;;;5076846;28;19973;-68
2022/08/26 14:19:34;;;;;;;;;;;21.90;99.90;;;;;;5077067;28;19923;-67
2022/08/26 14:22:00;;;;;;;;;;;21.90;99.90;;;;;;5094784;28;19921;-67
2022/08/26 14:24:25;;;;;;;;;;;21.50;99.90;;;;;;5094399;28;20365;-68
2022/08/26 14:26:51;;;;;;;;;;;21.50;99.90;;;;;;5075138;28;19924;-68
2022/08/26 14:29:16;;;;;;;;;;;21.50;99.90;;;;;;5094173;28;20019;-68
2022/08/26 14:31:42;;;;;;;;;;;21.40;99.90;;;;;;5075897;28;19978;-68